createdAt,value
2023-03-01T02:07:44.181Z,2.90
2023-03-01T02:10:12.202Z,2.80
2023-03-01T02:12:39.654Z,2.80
2023-03-01T02:15:07.268Z,2.80
2023-03-01T02:38:02.446Z,2.80
2023-03-01T02:40:31.461Z,2.80
2023-03-01T02:42:59.799Z,2.80
2023-03-01T02:45:27.917Z,2.80
2023-03-01T02:47:56.149Z,2.80
2023-03-01T02:50:51.874Z,2.80
2023-03-01T03:04:52.221Z,2.80
2023-03-01T03:07:18.801Z,2.80
2023-03-01T03:09:45.440Z,2.80
2023-03-01T03:56:03.126Z,2.50
2023-03-01T03:58:29.732Z,2.40
2023-03-01T04:00:58.004Z,2.40
2023-03-01T04:03:26.746Z,2.40
2023-03-01T04:09:34.064Z,2.40
2023-03-01T04:27:24.425Z,2.20
2023-03-01T04:29:51.057Z,2.20
2023-03-01T04:32:18.715Z,2.20
2023-03-01T04:34:45.543Z,2.20
2023-03-01T04:37:12.138Z,2.10
2023-03-01T04:58:44.273Z,1.90
2023-03-01T05:01:15.914Z,1.90
2023-03-01T05:03:46.901Z,1.90
2023-03-01T05:06:14.161Z,1.80
2023-03-01T05:08:42.458Z,1.80
2023-03-01T06:22:33.862Z,1.20
2023-03-01T06:25:00.563Z,1.20
2023-03-01T06:27:27.232Z,1.20
2023-03-01T06:29:54.644Z,1.20
2023-03-01T06:32:21.254Z,1.20
2023-03-01T06:34:47.888Z,1.20
2023-03-01T06:37:14.604Z,1.20
2023-03-01T06:39:41.261Z,1.20
2023-03-01T06:42:09.089Z,1.20
2023-03-01T06:44:35.782Z,1.20
2023-03-01T07:25:34.095Z,1.20
2023-03-01T07:28:01.686Z,1.20
2023-03-01T07:30:29.429Z,1.20
2023-03-01T07:32:57.620Z,1.20
2023-03-01T07:35:26.073Z,1.20
2023-03-01T07:37:53.043Z,1.20
2023-03-01T07:40:20.410Z,1.20
2023-03-01T07:42:47.160Z,1.30
2023-03-01T07:45:14.466Z,1.30
2023-03-01T07:59:14.052Z,1.40
2023-03-01T08:01:40.948Z,1.40
2023-03-01T08:04:09.627Z,1.40
2023-03-01T08:06:36.957Z,1.50
2023-03-01T08:09:03.880Z,1.50
2023-03-01T08:39:24.122Z,1.70
2023-03-01T08:45:58.338Z,1.70
2023-03-01T08:48:25.317Z,1.80
2023-03-01T08:50:52.264Z,1.80
2023-03-01T09:04:53.930Z,2.10
2023-03-01T09:07:20.538Z,2.10
2023-03-01T09:09:47.530Z,2.20
2023-03-01T09:12:14.223Z,2.20
2023-03-01T10:45:42.164Z,6.20
2023-03-01T10:48:27.360Z,6.50
2023-03-01T10:50:59.929Z,6.70
2023-03-01T10:53:36.029Z,6.90
2023-03-01T11:24:15.320Z,8.40
2023-03-01T11:26:48.540Z,8.70
2023-03-01T11:29:26.130Z,8.70
2023-03-01T11:31:57.801Z,9.00
2023-03-01T11:35:03.069Z,9.10
2023-03-01T11:38:02.220Z,9.30
2023-03-01T11:40:31.872Z,9.50
2023-03-01T11:43:24.166Z,9.60
2023-03-01T11:46:02.465Z,9.70
2023-03-01T11:49:09.423Z,9.90
2023-03-01T11:51:44.836Z,10.10
2023-03-01T11:54:55.341Z,10.20
2023-03-01T12:05:29.848Z,10.70
2023-03-01T12:08:33.736Z,10.90
2023-03-01T12:11:24.771Z,11.10
2023-03-01T13:08:10.391Z,13.00
2023-03-01T13:11:04.429Z,13.10
2023-03-01T13:13:32.312Z,13.20
2023-03-01T13:16:43.905Z,13.30
2023-03-01T13:19:18.453Z,13.30
2023-03-01T15:18:01.648Z,12.80
2023-03-01T15:20:30.946Z,12.60
2023-03-01T15:22:58.678Z,12.50
2023-03-01T15:25:30.479Z,12.40
2023-03-01T15:27:59.518Z,12.20
2023-03-01T15:49:54.498Z,11.20
2023-03-01T15:52:40.485Z,11.10
2023-03-01T15:55:30.995Z,10.90
2023-03-01T16:22:41.558Z,9.90
2023-03-01T16:25:11.084Z,9.70
2023-03-01T16:27:38.485Z,9.60
2023-03-01T16:30:07.113Z,9.50
2023-03-01T16:40:29.706Z,9.30
2023-03-01T16:43:00.422Z,9.20
2023-03-01T16:45:28.495Z,9.10
2023-03-01T16:47:56.259Z,9.10
2023-03-01T17:13:29.742Z,8.40
2023-03-01T17:15:56.369Z,8.30
2023-03-01T17:18:23.002Z,8.20
2023-03-01T17:29:43.426Z,8.10
2023-03-01T17:32:10.380Z,8.00
2023-03-01T17:34:37.445Z,7.90
2023-03-01T17:37:04.295Z,7.90
2023-03-01T17:51:11.839Z,7.60
2023-03-01T17:53:40.670Z,7.60
2023-03-01T17:56:08.473Z,7.40
2023-03-01T17:58:35.093Z,7.40
2023-03-01T18:01:10.527Z,7.40
2023-03-01T18:07:42.138Z,7.30
2023-03-01T18:10:09.432Z,7.20
2023-03-01T18:12:36.556Z,7.20
2023-03-01T18:15:03.467Z,7.10
2023-03-01T18:17:30.138Z,7.10
2023-03-01T20:51:42.369Z,5.10
2023-03-01T20:54:10.481Z,5.10
2023-03-01T20:56:37.751Z,5.00
2023-03-01T20:59:05.951Z,5.00
2023-03-01T21:01:32.808Z,5.00
2023-03-01T21:03:59.529Z,5.00
2023-03-01T21:06:26.282Z,5.00
2023-03-01T23:27:43.583Z,3.90
2023-03-01T23:30:10.812Z,3.90
2023-03-01T23:32:40.519Z,3.90
2023-03-01T23:35:10.560Z,3.90
2023-03-01T23:49:02.185Z,3.90
2023-03-01T23:51:29.206Z,3.90
2023-03-01T23:54:05.334Z,3.90
2023-03-01T23:56:37.435Z,3.90
2023-03-01T23:59:10.240Z,3.90
